sensor_id;sensor_type;location;lat;lon;timestamp;pressure;altitude;pressure_sealevel;temperature;humidity
30636;BME280;17400;52.392;9.750;2023-05-17T00:01:07;101468.66;;;11.50;99.32
30636;BME280;17400;52.392;9.750;2023-05-17T00:03:35;101466.06;;;11.42;100.00
30636;BME280;17400;52.392;9.750;2023-05-17T00:06:03;101466.09;;;11.33;100.00
30636;BME280;17400;52.392;9.750;2023-05-17T00:08:30;101459.84;;;11.33;100.00
30636;BME280;17400;52.392;9.750;2023-05-17T00:10:58;101460.63;;;11.42;100.00
30636;BME280;17400;52.392;9.750;2023-05-17T00:13:28;101457.72;;;11.43;100.00
30636;BME280;17400;52.392;9.750;2023-05-17T00:15:55;101456.31;;;11.32;100.00
30636;BME280;17400;52.392;9.750;2023-05-17T00:18:23;101453.31;;;11.42;100.00
30636;BME280;17400;52.392;9.750;2023-05-17T00:20:51;101459.03;;;11.47;100.00
30636;BME280;17400;52.392;9.750;2023-05-17T00:23:19;101448.53;;;11.29;100.00
30636;BME280;17400;52.392;9.750;2023-05-17T00:25:47;101456.66;;;11.29;100.00
30636;BME280;17400;52.392;9.750;2023-05-17T00:28:15;101452.63;;;11.25;100.00
30636;BME280;17400;52.392;9.750;2023-05-17T00:30:43;101453.66;;;11.24;100.00
30636;BME280;17400;52.392;9.750;2023-05-17T00:33:11;101455.81;;;11.29;100.00
30636;BME280;17400;52.392;9.750;2023-05-17T00:35:39;101457.97;;;11.33;100.00
30636;BME280;17400;52.392;9.750;2023-05-17T00:38:07;101465.00;;;11.43;100.00
30636;BME280;17400;52.392;9.750;2023-05-17T00:40:35;101454.03;;;11.21;100.00
30636;BME280;17400;52.392;9.750;2023-05-17T00:43:02;101460.66;;;11.19;100.00
30636;BME280;17400;52.392;9.750;2023-05-17T00:45:30;101463.97;;;11.06;100.00
30636;BME280;17400;52.392;9.750;2023-05-17T00:47:59;101470.19;;;11.14;100.00
30636;BME280;17400;52.392;9.750;2023-05-17T00:50:28;101464.88;;;10.98;100.00
30636;BME280;17400;52.392;9.750;2023-05-17T00:52:56;101463.31;;;11.04;100.00
30636;BME280;17400;52.392;9.750;2023-05-17T00:55:23;101454.63;;;11.08;100.00
30636;BME280;17400;52.392;9.750;2023-05-17T00:57:52;101461.38;;;11.12;100.00
30636;BME280;17400;52.392;9.750;2023-05-17T01:00:20;101461.84;;;11.16;100.00
30636;BME280;17400;52.392;9.750;2023-05-17T01:02:48;101468.97;;;11.17;100.00
30636;BME280;17400;52.392;9.750;2023-05-17T01:05:17;101475.00;;;11.27;100.00
30636;BME280;17400;52.392;9.750;2023-05-17T01:07:45;101464.25;;;11.34;100.00
30636;BME280;17400;52.392;9.750;2023-05-17T01:10:12;101480.84;;;11.31;100.00
30636;BME280;17400;52.392;9.750;2023-05-17T01:12:49;101479.53;;;11.27;100.00
30636;BME280;17400;52.392;9.750;2023-05-17T01:15:24;101482.94;;;11.29;100.00
30636;BME280;17400;52.392;9.750;2023-05-17T01:18:07;101476.91;;;11.19;100.00
30636;BME280;17400;52.392;9.750;2023-05-17T01:20:41;101487.09;;;11.16;100.00
30636;BME280;17400;52.392;9.750;2023-05-17T01:23:24;101477.81;;;11.11;100.00
30636;BME280;17400;52.392;9.750;2023-05-17T01:26:10;101478.69;;;11.11;100.00
30636;BME280;17400;52.392;9.750;2023-05-17T01:28:44;101481.41;;;11.11;100.00
30636;BME280;17400;52.392;9.750;2023-05-17T01:31:13;101488.53;;;11.04;100.00
30636;BME280;17400;52.392;9.750;2023-05-17T01:33:41;101477.59;;;10.97;100.00
30636;BME280;17400;52.392;9.750;2023-05-17T01:36:09;101486.91;;;10.95;100.00
30636;BME280;17400;52.392;9.750;2023-05-17T01:38:37;101486.09;;;10.94;100.00
30636;BME280;17400;52.392;9.750;2023-05-17T01:41:11;101486.72;;;10.96;100.00
30636;BME280;17400;52.392;9.750;2023-05-17T01:43:46;101487.28;;;10.92;100.00
30636;BME280;17400;52.392;9.750;2023-05-17T01:46:23;101484.09;;;10.88;100.00
30636;BME280;17400;52.392;9.750;2023-05-17T01:48:59;101490.41;;;10.80;100.00
30636;BME280;17400;52.392;9.750;2023-05-17T01:51:32;101486.88;;;10.80;100.00
30636;BME280;17400;52.392;9.750;2023-05-17T01:54:04;101499.84;;;10.84;100.00
30636;BME280;17400;52.392;9.750;2023-05-17T01:56:35;101501.59;;;10.77;100.00
30636;BME280;17400;52.392;9.750;2023-05-17T01:59:10;101499.09;;;10.67;100.00
30636;BME280;17400;52.392;9.750;2023-05-17T02:01:38;101503.63;;;10.75;100.00
30636;BME280;17400;52.392;9.750;2023-05-17T02:04:08;101506.53;;;10.74;100.00
30636;BME280;17400;52.392;9.750;2023-05-17T02:06:36;101506.00;;;10.78;100.00
30636;BME280;17400;52.392;9.750;2023-05-17T02:09:04;101497.88;;;10.78;100.00
30636;BME280;17400;52.392;9.750;2023-05-17T02:11:32;101506.34;;;10.75;100.00
30636;BME280;17400;52.392;9.750;2023-05-17T02:14:03;101508.09;;;10.68;100.00
30636;BME280;17400;52.392;9.750;2023-05-17T02:16:32;101508.47;;;10.57;100.00
30636;BME280;17400;52.392;9.750;2023-05-17T02:18:59;101511.31;;;10.63;100.00
30636;BME280;17400;52.392;9.750;2023-05-17T02:21:27;101507.09;;;10.69;100.00
30636;BME280;17400;52.392;9.750;2023-05-17T02:23:55;101516.53;;;10.73;100.00
30636;BME280;17400;52.392;9.750;2023-05-17T02:26:23;101512.81;;;10.74;100.00
30636;BME280;17400;52.392;9.750;2023-05-17T02:28:50;101518.16;;;10.82;100.00
30636;BME280;17400;52.392;9.750;2023-05-17T02:31:18;101513.47;;;10.76;100.00
30636;BME280;17400;52.392;9.750;2023-05-17T02:33:47;101508.72;;;10.78;100.00
30636;BME280;17400;52.392;9.750;2023-05-17T02:36:15;101508.03;;;10.76;100.00
30636;BME280;17400;52.392;9.750;2023-05-17T02:38:43;101517.84;;;10.77;100.00
30636;BME280;17400;52.392;9.750;2023-05-17T02:41:11;101514.78;;;10.80;100.00
30636;BME280;17400;52.392;9.750;2023-05-17T02:43:39;101514.72;;;10.89;100.00
30636;BME280;17400;52.392;9.750;2023-05-17T02:46:07;101513.31;;;10.70;100.00
30636;BME280;17400;52.392;9.750;2023-05-17T02:48:36;101513.94;;;10.80;100.00
30636;BME280;17400;52.392;9.750;2023-05-17T02:51:05;101518.78;;;10.93;100.00
30636;BME280;17400;52.392;9.750;2023-05-17T02:53:32;101525.41;;;10.90;100.00
30636;BME280;17400;52.392;9.750;2023-05-17T02:56:00;101523.84;;;10.96;100.00
30636;BME280;17400;52.392;9.750;2023-05-17T02:58:29;101524.66;;;10.96;100.00
30636;BME280;17400;52.392;9.750;2023-05-17T03:00:57;101524.66;;;10.96;100.00
30636;BME280;17400;52.392;9.750;2023-05-17T03:03:24;101526.03;;;10.92;100.00
30636;BME280;17400;52.392;9.750;2023-05-17T03:05:52;101532.97;;;10.95;100.00
30636;BME280;17400;52.392;9.750;2023-05-17T03:08:22;101538.09;;;10.90;100.00
30636;BME280;17400;52.392;9.750;2023-05-17T03:10:49;101541.47;;;10.92;100.00
30636;BME280;17400;52.392;9.750;2023-05-17T03:13:17;101542.78;;;10.96;100.00
30636;BME280;17400;52.392;9.750;2023-05-17T03:15:45;101544.13;;;11.00;100.00
30636;BME280;17400;52.392;9.750;2023-05-17T03:18:13;101546.66;;;11.02;100.00
30636;BME280;17400;52.392;9.750;2023-05-17T03:20:41;101548.28;;;10.88;100.00
30636;BME280;17400;52.392;9.750;2023-05-17T03:23:09;101557.78;;;10.83;100.00
30636;BME280;17400;52.392;9.750;2023-05-17T03:25:38;101563.59;;;10.72;100.00
30636;BME280;17400;52.392;9.750;2023-05-17T03:28:06;101558.78;;;10.82;100.00
30636;BME280;17400;52.392;9.750;2023-05-17T03:30:34;101567.53;;;10.93;100.00
30636;BME280;17400;52.392;9.750;2023-05-17T03:33:02;101570.91;;;10.95;100.00
30636;BME280;17400;52.392;9.750;2023-05-17T03:35:30;101568.75;;;10.90;100.00
30636;BME280;17400;52.392;9.750;2023-05-17T03:37:58;101573.59;;;10.95;100.00
30636;BME280;17400;52.392;9.750;2023-05-17T03:40:25;101572.09;;;10.92;100.00
30636;BME280;17400;52.392;9.750;2023-05-17T03:42:55;101577.34;;;10.94;100.00
30636;BME280;17400;52.392;9.750;2023-05-17T03:45:23;101576.31;;;10.95;100.00
30636;BME280;17400;52.392;9.750;2023-05-17T03:47:51;101588.16;;;10.94;100.00
30636;BME280;17400;52.392;9.750;2023-05-17T03:50:19;101591.81;;;10.78;100.00
30636;BME280;17400;52.392;9.750;2023-05-17T03:52:47;101592.13;;;10.83;100.00
30636;BME280;17400;52.392;9.750;2023-05-17T03:55:14;101593.47;;;10.87;100.00
30636;BME280;17400;52.392;9.750;2023-05-17T03:57:42;101598.75;;;10.80;100.00
30636;BME280;17400;52.392;9.750;2023-05-17T04:00:12;101596.44;;;10.69;100.00
30636;BME280;17400;52.392;9.750;2023-05-17T04:02:46;101604.88;;;10.74;100.00
30636;BME280;17400;52.392;9.750;2023-05-17T04:05:14;101599.47;;;10.66;100.00
30636;BME280;17400;52.392;9.750;2023-05-17T04:07:42;101610.31;;;10.66;100.00
30636;BME280;17400;52.392;9.750;2023-05-17T04:10:11;101614.72;;;10.67;100.00
30636;BME280;17400;52.392;9.750;2023-05-17T04:12:39;101614.06;;;10.65;100.00
30636;BME280;17400;52.392;9.750;2023-05-17T04:15:08;101628.56;;;10.72;100.00
30636;BME280;17400;52.392;9.750;2023-05-17T04:17:37;101615.72;;;10.66;100.00
30636;BME280;17400;52.392;9.750;2023-05-17T04:20:05;101624.63;;;10.43;100.00
30636;BME280;17400;52.392;9.750;2023-05-17T04:22:33;101628.16;;;10.52;100.00
30636;BME280;17400;52.392;9.750;2023-05-17T04:25:01;101628.28;;;10.59;100.00
30636;BME280;17400;52.392;9.750;2023-05-17T04:27:29;101639.63;;;10.62;100.00
30636;BME280;17400;52.392;9.750;2023-05-17T04:29:57;101632.19;;;10.56;100.00
30636;BME280;17400;52.392;9.750;2023-05-17T04:32:25;101645.38;;;10.59;100.00
30636;BME280;17400;52.392;9.750;2023-05-17T04:34:55;101642.50;;;10.61;100.00
30636;BME280;17400;52.392;9.750;2023-05-17T04:37:22;101644.53;;;10.59;100.00
30636;BME280;17400;52.392;9.750;2023-05-17T04:39:50;101658.03;;;10.67;100.00
30636;BME280;17400;52.392;9.750;2023-05-17T04:42:18;101653.31;;;10.69;100.00
30636;BME280;17400;52.392;9.750;2023-05-17T04:44:46;101657.41;;;10.57;100.00
30636;BME280;17400;52.392;9.750;2023-05-17T04:47:14;101660.78;;;10.59;100.00
30636;BME280;17400;52.392;9.750;2023-05-17T04:49:42;101664.00;;;10.54;100.00
30636;BME280;17400;52.392;9.750;2023-05-17T04:52:11;101670.47;;;10.53;100.00
30636;BME280;17400;52.392;9.750;2023-05-17T04:54:39;101674.00;;;10.54;100.00
30636;BME280;17400;52.392;9.750;2023-05-17T04:57:07;101670.97;;;10.48;100.00
30636;BME280;17400;52.392;9.750;2023-05-17T04:59:34;101676.88;;;10.52;100.00
30636;BME280;17400;52.392;9.750;2023-05-17T05:02:02;101673.50;;;10.50;100.00
30636;BME280;17400;52.392;9.750;2023-05-17T05:04:32;101684.00;;;10.37;100.00
30636;BME280;17400;52.392;9.750;2023-05-17T05:07:00;101693.28;;;10.42;100.00
30636;BME280;17400;52.392;9.750;2023-05-17T05:09:29;101695.84;;;10.44;100.00
30636;BME280;17400;52.392;9.750;2023-05-17T05:11:56;101693.31;;;10.50;100.00
30636;BME280;17400;52.392;9.750;2023-05-17T05:14:24;101703.97;;;10.44;100.00
30636;BME280;17400;52.392;9.750;2023-05-17T05:16:52;101694.97;;;10.52;100.00
30636;BME280;17400;52.392;9.750;2023-05-17T05:19:22;101706.84;;;10.50;100.00
30636;BME280;17400;52.392;9.750;2023-05-17T05:21:49;101708.53;;;10.43;100.00
30636;BME280;17400;52.392;9.750;2023-05-17T05:24:17;101716.66;;;10.43;100.00
30636;BME280;17400;52.392;9.750;2023-05-17T05:26:46;101712.25;;;10.50;100.00
30636;BME280;17400;52.392;9.750;2023-05-17T05:29:14;101717.31;;;10.54;100.00
30636;BME280;17400;52.392;9.750;2023-05-17T05:31:42;101723.72;;;10.61;100.00
30636;BME280;17400;52.392;9.750;2023-05-17T05:34:10;101724.44;;;10.55;100.00
30636;BME280;17400;52.392;9.750;2023-05-17T05:36:38;101725.78;;;10.59;100.00
30636;BME280;17400;52.392;9.750;2023-05-17T05:39:06;101735.09;;;10.56;99.63
30636;BME280;17400;52.392;9.750;2023-05-17T05:41:34;101742.19;;;10.57;99.31
30636;BME280;17400;52.392;9.750;2023-05-17T05:44:04;101738.78;;;10.63;98.86
30636;BME280;17400;52.392;9.750;2023-05-17T05:46:31;101745.06;;;10.64;98.24
30636;BME280;17400;52.392;9.750;2023-05-17T05:48:59;101736.91;;;10.72;97.93
30636;BME280;17400;52.392;9.750;2023-05-17T05:51:27;101748.44;;;10.74;96.95
30636;BME280;17400;52.392;9.750;2023-05-17T05:53:55;101755.19;;;10.78;96.41
30636;BME280;17400;52.392;9.750;2023-05-17T05:56:24;101751.44;;;10.88;98.10
30636;BME280;17400;52.392;9.750;2023-05-17T05:58:53;101750.09;;;10.83;94.82
30636;BME280;17400;52.392;9.750;2023-05-17T06:01:22;101756.56;;;10.74;93.85
30636;BME280;17400;52.392;9.750;2023-05-17T06:03:51;101756.53;;;10.82;94.21
30636;BME280;17400;52.392;9.750;2023-05-17T06:06:19;101761.56;;;10.94;93.70
30636;BME280;17400;52.392;9.750;2023-05-17T06:08:47;101750.03;;;11.00;92.89
30636;BME280;17400;52.392;9.750;2023-05-17T06:11:15;101768.81;;;11.02;91.57
30636;BME280;17400;52.392;9.750;2023-05-17T06:13:43;101765.63;;;10.90;93.28
30636;BME280;17400;52.392;9.750;2023-05-17T06:16:12;101765.94;;;11.03;91.98
30636;BME280;17400;52.392;9.750;2023-05-17T06:18:41;101767.91;;;11.17;94.77
30636;BME280;17400;52.392;9.750;2023-05-17T06:21:09;101771.31;;;11.20;93.20
30636;BME280;17400;52.392;9.750;2023-05-17T06:23:38;101766.88;;;11.27;94.61
30636;BME280;17400;52.392;9.750;2023-05-17T06:26:06;101772.28;;;11.35;91.84
30636;BME280;17400;52.392;9.750;2023-05-17T06:28:36;101774.44;;;11.40;87.99
30636;BME280;17400;52.392;9.750;2023-05-17T06:31:04;101784.91;;;11.43;85.89
30636;BME280;17400;52.392;9.750;2023-05-17T06:33:32;101781.50;;;11.49;86.17
30636;BME280;17400;52.392;9.750;2023-05-17T06:36:01;101789.28;;;11.52;83.61
30636;BME280;17400;52.392;9.750;2023-05-17T06:38:34;101791.63;;;11.24;83.79
30636;BME280;17400;52.392;9.750;2023-05-17T06:41:02;101790.09;;;11.21;84.16
30636;BME280;17400;52.392;9.750;2023-05-17T06:43:30;101792.28;;;11.26;84.95
30636;BME280;17400;52.392;9.750;2023-05-17T06:46:00;101784.44;;;11.39;82.67
30636;BME280;17400;52.392;9.750;2023-05-17T06:48:27;101799.16;;;11.45;78.16
30636;BME280;17400;52.392;9.750;2023-05-17T06:50:55;101805.41;;;11.54;73.53
30636;BME280;17400;52.392;9.750;2023-05-17T06:53:24;101803.03;;;11.50;68.68
30636;BME280;17400;52.392;9.750;2023-05-17T06:55:52;101801.31;;;11.49;71.04
30636;BME280;17400;52.392;9.750;2023-05-17T06:58:20;101809.13;;;11.53;69.54
30636;BME280;17400;52.392;9.750;2023-05-17T07:00:48;101808.41;;;11.59;69.21
30636;BME280;17400;52.392;9.750;2023-05-17T07:03:16;101814.69;;;11.59;66.65
30636;BME280;17400;52.392;9.750;2023-05-17T07:05:43;101808.84;;;11.39;66.24
30636;BME280;17400;52.392;9.750;2023-05-17T07:08:11;101823.63;;;11.20;68.05
30636;BME280;17400;52.392;9.750;2023-05-17T07:10:42;101823.47;;;11.22;66.96
30636;BME280;17400;52.392;9.750;2023-05-17T07:13:09;101822.44;;;11.23;65.90
30636;BME280;17400;52.392;9.750;2023-05-17T07:15:37;101821.22;;;11.33;64.82
30636;BME280;17400;52.392;9.750;2023-05-17T07:18:05;101829.22;;;11.35;65.17
30636;BME280;17400;52.392;9.750;2023-05-17T07:20:33;101817.00;;;11.31;64.04
30636;BME280;17400;52.392;9.750;2023-05-17T07:23:01;101829.00;;;11.45;65.73
30636;BME280;17400;52.392;9.750;2023-05-17T07:25:29;101830.88;;;11.44;64.53
30636;BME280;17400;52.392;9.750;2023-05-17T07:27:59;101842.75;;;11.35;62.10
30636;BME280;17400;52.392;9.750;2023-05-17T07:30:27;101842.59;;;11.37;61.32
30636;BME280;17400;52.392;9.750;2023-05-17T07:32:55;101841.13;;;11.57;60.60
30636;BME280;17400;52.392;9.750;2023-05-17T07:35:23;101838.69;;;11.71;59.23
30636;BME280;17400;52.392;9.750;2023-05-17T07:37:50;101844.44;;;11.76;57.94
30636;BME280;17400;52.392;9.750;2023-05-17T07:40:18;101857.97;;;11.84;59.95
30636;BME280;17400;52.392;9.750;2023-05-17T07:42:47;101851.81;;;11.98;60.29
30636;BME280;17400;52.392;9.750;2023-05-17T07:45:17;101847.06;;;12.00;60.93
30636;BME280;17400;52.392;9.750;2023-05-17T07:47:45;101854.38;;;12.00;60.46
30636;BME280;17400;52.392;9.750;2023-05-17T07:50:14;101853.69;;;11.90;58.60
30636;BME280;17400;52.392;9.750;2023-05-17T07:52:41;101860.63;;;12.00;59.35
30636;BME280;17400;52.392;9.750;2023-05-17T07:55:11;101868.06;;;12.07;60.08
30636;BME280;17400;52.392;9.750;2023-05-17T07:57:43;101871.31;;;11.94;60.23
30636;BME280;17400;52.392;9.750;2023-05-17T08:00:13;101880.84;;;11.90;60.51
30636;BME280;17400;52.392;9.750;2023-05-17T08:02:46;101876.44;;;11.89;60.74
30636;BME280;17400;52.392;9.750;2023-05-17T08:05:14;101888.97;;;11.90;60.60
30636;BME280;17400;52.392;9.750;2023-05-17T08:07:42;101895.91;;;11.92;60.34
30636;BME280;17400;52.392;9.750;2023-05-17T08:10:10;101899.28;;;11.94;60.49
30636;BME280;17400;52.392;9.750;2023-05-17T08:12:38;101900.09;;;12.11;60.08
30636;BME280;17400;52.392;9.750;2023-05-17T08:15:07;101897.22;;;12.05;60.17
30636;BME280;17400;52.392;9.750;2023-05-17T08:17:35;101900.78;;;12.05;61.94
30636;BME280;17400;52.392;9.750;2023-05-17T08:20:06;101902.66;;;12.05;61.56
30636;BME280;17400;52.392;9.750;2023-05-17T08:22:35;101903.53;;;11.97;61.50
30636;BME280;17400;52.392;9.750;2023-05-17T08:25:03;101909.31;;;11.94;61.25
30636;BME280;17400;52.392;9.750;2023-05-17T08:27:31;101916.94;;;11.98;62.15
30636;BME280;17400;52.392;9.750;2023-05-17T08:29:58;101912.50;;;12.06;62.83
30636;BME280;17400;52.392;9.750;2023-05-17T08:32:26;101918.13;;;11.96;62.40
30636;BME280;17400;52.392;9.750;2023-05-17T08:34:54;101907.97;;;11.90;62.26
30636;BME280;17400;52.392;9.750;2023-05-17T08:37:24;101912.00;;;12.02;61.98
30636;BME280;17400;52.392;9.750;2023-05-17T08:39:52;101919.25;;;12.10;60.16
30636;BME280;17400;52.392;9.750;2023-05-17T08:42:22;101915.13;;;12.22;58.26
30636;BME280;17400;52.392;9.750;2023-05-17T08:44:50;101912.53;;;12.29;58.50
30636;BME280;17400;52.392;9.750;2023-05-17T08:47:20;101906.81;;;12.24;58.12
30636;BME280;17400;52.392;9.750;2023-05-17T08:49:55;101911.56;;;12.22;58.99
30636;BME280;17400;52.392;9.750;2023-05-17T08:52:31;101911.94;;;12.19;59.33
30636;BME280;17400;52.392;9.750;2023-05-17T08:54:59;101914.84;;;12.09;58.46
30636;BME280;17400;52.392;9.750;2023-05-17T08:57:32;101917.94;;;12.06;56.51
30636;BME280;17400;52.392;9.750;2023-05-17T09:00:02;101929.84;;;11.88;58.42
30636;BME280;17400;52.392;9.750;2023-05-17T09:02:32;101925.44;;;11.95;57.49
30636;BME280;17400;52.392;9.750;2023-05-17T09:05:00;101930.63;;;12.13;55.74
30636;BME280;17400;52.392;9.750;2023-05-17T09:07:30;101926.88;;;12.14;55.80
30636;BME280;17400;52.392;9.750;2023-05-17T09:09:58;101915.31;;;12.21;55.77
30636;BME280;17400;52.392;9.750;2023-05-17T09:12:26;101913.38;;;12.29;55.23
30636;BME280;17400;52.392;9.750;2023-05-17T09:15:10;101918.72;;;12.46;53.71
30636;BME280;17400;52.392;9.750;2023-05-17T09:17:40;101904.13;;;12.70;54.12
30636;BME280;17400;52.392;9.750;2023-05-17T09:20:09;101904.25;;;12.92;52.42
30636;BME280;17400;52.392;9.750;2023-05-17T09:22:38;101907.69;;;13.09;50.56
30636;BME280;17400;52.392;9.750;2023-05-17T09:25:07;101913.41;;;13.14;49.59
30636;BME280;17400;52.392;9.750;2023-05-17T09:27:35;101911.16;;;13.17;49.21
30636;BME280;17400;52.392;9.750;2023-05-17T09:30:09;101904.16;;;13.23;48.59
30636;BME280;17400;52.392;9.750;2023-05-17T09:32:42;101900.84;;;13.28;47.87
30636;BME280;17400;52.392;9.750;2023-05-17T09:35:10;101895.03;;;13.16;47.49
30636;BME280;17400;52.392;9.750;2023-05-17T09:37:41;101898.41;;;13.18;45.62
30636;BME280;17400;52.392;9.750;2023-05-17T09:40:20;101902.25;;;13.09;45.34
30636;BME280;17400;52.392;9.750;2023-05-17T09:42:50;101899.13;;;12.97;45.65
30636;BME280;17400;52.392;9.750;2023-05-17T09:45:21;101897.75;;;13.16;46.26
30636;BME280;17400;52.392;9.750;2023-05-17T09:47:49;101894.84;;;13.17;46.04
30636;BME280;17400;52.392;9.750;2023-05-17T09:50:18;101900.44;;;13.01;46.25
30636;BME280;17400;52.392;9.750;2023-05-17T09:52:51;101898.34;;;12.88;46.86
30636;BME280;17400;52.392;9.750;2023-05-17T09:55:23;101910.63;;;12.84;47.37
30636;BME280;17400;52.392;9.750;2023-05-17T09:58:01;101904.16;;;12.85;47.70
30636;BME280;17400;52.392;9.750;2023-05-17T10:00:29;101903.25;;;12.93;48.04
30636;BME280;17400;52.392;9.750;2023-05-17T10:02:58;101902.22;;;12.94;48.30
30636;BME280;17400;52.392;9.750;2023-05-17T10:05:27;101913.50;;;12.82;48.54
30636;BME280;17400;52.392;9.750;2023-05-17T10:07:57;101907.59;;;12.79;47.74
30636;BME280;17400;52.392;9.750;2023-05-17T10:10:25;101909.78;;;12.60;46.84
30636;BME280;17400;52.392;9.750;2023-05-17T10:12:53;101914.13;;;12.46;46.31
30636;BME280;17400;52.392;9.750;2023-05-17T10:15:22;101918.25;;;12.42;47.26
30636;BME280;17400;52.392;9.750;2023-05-17T10:17:52;101922.41;;;12.53;47.21
30636;BME280;17400;52.392;9.750;2023-05-17T10:20:21;101915.22;;;12.60;46.86
30636;BME280;17400;52.392;9.750;2023-05-17T10:22:49;101912.81;;;12.65;46.69
30636;BME280;17400;52.392;9.750;2023-05-17T10:25:18;101917.41;;;12.65;45.74
30636;BME280;17400;52.392;9.750;2023-05-17T10:27:46;101921.97;;;12.64;45.83
30636;BME280;17400;52.392;9.750;2023-05-17T10:30:16;101927.91;;;12.68;44.86
30636;BME280;17400;52.392;9.750;2023-05-17T10:32:44;101917.25;;;12.81;44.73
30636;BME280;17400;52.392;9.750;2023-05-17T10:35:13;101911.69;;;12.98;44.25
30636;BME280;17400;52.392;9.750;2023-05-17T10:37:41;101920.72;;;13.13;44.82
30636;BME280;17400;52.392;9.750;2023-05-17T10:40:10;101923.13;;;13.08;44.90
30636;BME280;17400;52.392;9.750;2023-05-17T10:42:46;101924.53;;;13.04;46.27
30636;BME280;17400;52.392;9.750;2023-05-17T10:45:19;101920.16;;;12.80;45.96
30636;BME280;17400;52.392;9.750;2023-05-17T10:47:50;101928.78;;;12.60;45.97
30636;BME280;17400;52.392;9.750;2023-05-17T10:50:21;101927.72;;;12.70;46.29
30636;BME280;17400;52.392;9.750;2023-05-17T10:52:50;101929.41;;;12.71;45.35
30636;BME280;17400;52.392;9.750;2023-05-17T10:55:19;101921.06;;;12.72;45.50
30636;BME280;17400;52.392;9.750;2023-05-17T10:58:13;101913.78;;;12.73;44.77
30636;BME280;17400;52.392;9.750;2023-05-17T11:00:44;101925.59;;;12.57;44.98
30636;BME280;17400;52.392;9.750;2023-05-17T11:03:15;101910.88;;;12.74;45.69
30636;BME280;17400;52.392;9.750;2023-05-17T11:06:10;101912.41;;;12.92;45.33
30636;BME280;17400;52.392;9.750;2023-05-17T11:09:04;101907.69;;;13.09;45.77
30636;BME280;17400;52.392;9.750;2023-05-17T11:11:33;101902.84;;;13.34;47.30
30636;BME280;17400;52.392;9.750;2023-05-17T11:14:03;101912.59;;;13.28;46.33
30636;BME280;17400;52.392;9.750;2023-05-17T11:16:35;101915.41;;;13.35;45.93
30636;BME280;17400;52.392;9.750;2023-05-17T11:19:07;101905.78;;;13.47;45.92
30636;BME280;17400;52.392;9.750;2023-05-17T11:21:44;101911.13;;;13.41;46.12
30636;BME280;17400;52.392;9.750;2023-05-17T11:24:15;101915.59;;;13.33;46.62
30636;BME280;17400;52.392;9.750;2023-05-17T11:26:49;101915.06;;;13.38;45.75
30636;BME280;17400;52.392;9.750;2023-05-17T11:29:18;101912.44;;;13.45;45.69
30636;BME280;17400;52.392;9.750;2023-05-17T11:31:50;101912.34;;;13.53;45.08
30636;BME280;17400;52.392;9.750;2023-05-17T11:34:18;101914.97;;;13.46;45.81
30636;BME280;17400;52.392;9.750;2023-05-17T11:36:50;101908.69;;;13.46;45.60
30636;BME280;17400;52.392;9.750;2023-05-17T11:39:19;101918.53;;;13.62;44.25
30636;BME280;17400;52.392;9.750;2023-05-17T11:41:49;101918.53;;;13.92;44.69
30636;BME280;17400;52.392;9.750;2023-05-17T11:44:23;101910.63;;;14.55;43.42
30636;BME280;17400;52.392;9.750;2023-05-17T11:47:00;101911.50;;;14.34;43.22
30636;BME280;17400;52.392;9.750;2023-05-17T11:49:30;101918.06;;;14.25;44.02
30636;BME280;17400;52.392;9.750;2023-05-17T11:52:02;101916.81;;;14.06;45.00
30636;BME280;17400;52.392;9.750;2023-05-17T11:54:30;101916.56;;;13.86;45.16
30636;BME280;17400;52.392;9.750;2023-05-17T11:56:59;101918.16;;;13.65;45.04
30636;BME280;17400;52.392;9.750;2023-05-17T11:59:35;101923.34;;;13.75;44.89
30636;BME280;17400;52.392;9.750;2023-05-17T12:02:03;101928.69;;;13.68;44.86
30636;BME280;17400;52.392;9.750;2023-05-17T12:04:34;101928.16;;;14.09;43.90
30636;BME280;17400;52.392;9.750;2023-05-17T12:07:03;101927.97;;;14.47;41.37
30636;BME280;17400;52.392;9.750;2023-05-17T12:09:31;101922.47;;;15.06;40.68
30636;BME280;17400;52.392;9.750;2023-05-17T12:12:01;101916.84;;;15.14;39.98
30636;BME280;17400;52.392;9.750;2023-05-17T12:14:31;101925.63;;;15.09;40.70
30636;BME280;17400;52.392;9.750;2023-05-17T12:17:02;101920.06;;;14.96;41.68
30636;BME280;17400;52.392;9.750;2023-05-17T12:19:33;101929.69;;;14.70;42.17
30636;BME280;17400;52.392;9.750;2023-05-17T12:22:05;101936.97;;;14.48;42.86
30636;BME280;17400;52.392;9.750;2023-05-17T12:24:37;101939.09;;;14.31;43.35
30636;BME280;17400;52.392;9.750;2023-05-17T12:27:06;101947.31;;;14.16;43.65
30636;BME280;17400;52.392;9.750;2023-05-17T12:29:35;101947.44;;;14.08;43.74
30636;BME280;17400;52.392;9.750;2023-05-17T12:32:04;101951.38;;;14.05;44.23
30636;BME280;17400;52.392;9.750;2023-05-17T12:34:34;101949.31;;;14.80;41.82
30636;BME280;17400;52.392;9.750;2023-05-17T12:37:02;101948.03;;;15.33;40.57
30636;BME280;17400;52.392;9.750;2023-05-17T12:39:32;101940.69;;;15.62;39.51
30636;BME280;17400;52.392;9.750;2023-05-17T12:41:59;101947.53;;;14.94;40.33
30636;BME280;17400;52.392;9.750;2023-05-17T12:44:27;101958.25;;;14.74;41.40
30636;BME280;17400;52.392;9.750;2023-05-17T12:46:56;101955.94;;;14.71;41.67
30636;BME280;17400;52.392;9.750;2023-05-17T12:49:28;101954.69;;;14.59;41.92
30636;BME280;17400;52.392;9.750;2023-05-17T12:52:02;101957.41;;;14.37;42.30
30636;BME280;17400;52.392;9.750;2023-05-17T12:54:31;101952.84;;;14.59;42.18
30636;BME280;17400;52.392;9.750;2023-05-17T12:57:08;101952.91;;;14.29;42.35